Riverside Municipal Airport Riverside US
ICAO: KRAL
IATA: RAL
Category: Medium
Scheduled Services: No

Elevation: 819 ft
TransAlt. 18000 ft.

Airport Communications:
SOCAL APP/DEP:135.4
ATIS:128.8
CTAF:121
GND:121.7
RDO:25.54
RDO:122.05
TWR:121
UNICOM:122.95

KRAL Zoom In..

If you have problems with the map follow the link
https://www.worldairports.se/pages/airport.php?
ICAO=KRAL

Runways:

(A) RW 09 length 5401 ft width 100 ft
ILS 110.90 / hdg 89

(B) RW 16 length 2850 ft width 48 ft
---- / hdg 165

(C) RW 27 length 5401 ft width 100 ft
---- / hdg 269

(D) RW 34 length 2850 ft width 48 ft
---- / hdg 345

Location; KRAL
Day. 19 / Time. 02.53 Zulu
* Altimeter: 30.15
* Temperature: 15° c. 59°f.
* Wind from: 090° Speed 06 kn.
Dewpoint: -05° c.
Visibility: 10 Statute Miles.
Clouds: Clear (automated report).

KRAL 190253Z 09006KT 10SM CLR 15/M05 A3015 RMK AO2 SLP202 T01501050 51003


Wind From 090°
Speed 06 kn.

 
 
jpsmedia worldairports.se 2020   terms of use